Marlboro, Massachusetts
Current Conditions -  °F | °C
As of 5:19 PM on Monday 26 Jan 2015 (Local Time) from KBED Reporting Station
Light Snow Light Snow  
Wind Chill:   Ceiling: 2700
Heat Index: 21°   Visibility: 2.5mi
Dew Point: 18°   Wind: 12mph
Humidity: 88%   Direction: 20°NNE
Pressure: 30.04"   Gusts: NA
Location:  42.3495°N, 71.5482°W
Report Text: KBED 262219Z AUTO 02010KT 2 1/2SM -SN BR BKN027 OVC035 M06/M08 A3004 RMK AO2 P0000 T10611078 TSNO
Loading
Personal Weather Stations






























Interactive Weather Map New forecast layout! Learn more

10-Day Weather Forecast

Advertisements
Track Severe Weather on mobile